createdAt,value
2022-10-20T00:02:03.214Z,306.73
2022-10-20T00:04:34.789Z,301.27
2022-10-20T00:07:05.850Z,303.17
2022-10-20T00:09:39.342Z,293.13
2022-10-20T00:12:10.531Z,304.33
2022-10-20T00:14:43.441Z,305.80
2022-10-20T00:17:15.251Z,303.90
2022-10-20T00:19:46.375Z,305.30
2022-10-20T00:22:18.271Z,303.47
2022-10-20T00:24:51.289Z,303.03
2022-10-20T00:27:22.328Z,301.60
2022-10-20T00:29:53.803Z,299.10
2022-10-20T00:32:26.314Z,300.57
2022-10-20T00:34:57.761Z,301.20
2022-10-20T00:37:28.791Z,297.30
2022-10-20T00:40:02.045Z,298.33
2022-10-20T00:42:34.262Z,295.33
2022-10-20T00:45:16.162Z,297.63
2022-10-20T00:47:50.771Z,295.13
2022-10-20T00:50:25.036Z,293.90
2022-10-20T00:52:58.900Z,295.07
2022-10-20T00:55:36.680Z,290.10
2022-10-20T00:58:08.843Z,295.87
2022-10-20T01:00:42.117Z,292.20
2022-10-20T01:03:21.724Z,296.73
2022-10-20T01:05:53.234Z,289.00
2022-10-20T01:08:25.195Z,292.50
2022-10-20T01:11:06.651Z,291.60
2022-10-20T01:13:45.243Z,297.50
2022-10-20T01:16:22.035Z,293.17
2022-10-20T01:19:04.886Z,294.53
2022-10-20T01:21:59.249Z,291.70
2022-10-20T01:24:58.517Z,290.43
2022-10-20T01:27:44.225Z,286.63
2022-10-20T01:30:18.081Z,281.53
2022-10-20T01:33:13.561Z,286.50
2022-10-20T01:36:02.347Z,284.27
2022-10-20T01:38:42.516Z,280.80
2022-10-20T01:41:19.548Z,286.50
2022-10-20T01:43:53.899Z,281.63
2022-10-20T01:46:29.892Z,283.60
2022-10-20T01:49:04.260Z,283.83
2022-10-20T01:51:36.342Z,283.73
2022-10-20T01:54:08.021Z,275.93
2022-10-20T01:56:45.778Z,282.53
2022-10-20T01:59:36.207Z,277.97
2022-10-20T02:02:19.686Z,280.30
2022-10-20T02:05:05.675Z,278.07
2022-10-20T02:07:37.864Z,277.70
2022-10-20T02:10:16.501Z,284.17
2022-10-20T02:12:52.265Z,277.67
2022-10-20T02:15:28.310Z,276.33
2022-10-20T02:18:03.212Z,276.73
2022-10-20T02:20:35.764Z,270.73
2022-10-20T02:23:08.889Z,276.77
2022-10-20T02:25:41.998Z,272.80
2022-10-20T02:28:16.336Z,277.90
2022-10-20T02:30:50.665Z,269.37
2022-10-20T02:33:23.557Z,270.20
2022-10-20T02:35:59.456Z,276.07
2022-10-20T02:38:30.891Z,270.80
2022-10-20T02:41:02.340Z,268.87
2022-10-20T02:43:34.009Z,270.03
2022-10-20T02:46:06.943Z,272.97
2022-10-20T02:48:39.217Z,274.60
2022-10-20T02:51:12.201Z,275.53
2022-10-20T02:53:45.230Z,270.60
2022-10-20T02:56:16.961Z,270.97
2022-10-20T02:58:49.412Z,270.37
2022-10-20T03:01:23.830Z,274.87
2022-10-20T03:04:00.043Z,271.83
2022-10-20T03:06:32.089Z,272.67
2022-10-20T03:09:03.480Z,271.03
2022-10-20T03:11:35.245Z,269.80
2022-10-20T03:14:07.429Z,268.93
2022-10-20T03:16:40.688Z,272.83
2022-10-20T03:19:13.040Z,271.40
2022-10-20T03:21:44.538Z,266.83
2022-10-20T03:24:15.744Z,268.70
2022-10-20T03:26:46.773Z,261.93
2022-10-20T03:29:18.565Z,267.73
2022-10-20T03:31:53.726Z,262.20
2022-10-20T03:34:25.135Z,260.13
2022-10-20T03:36:56.479Z,265.07
2022-10-20T03:39:28.073Z,258.60
2022-10-20T03:42:00.232Z,258.73
2022-10-20T03:44:31.739Z,253.67
2022-10-20T03:47:04.453Z,257.80
2022-10-20T03:49:35.980Z,256.33
2022-10-20T03:52:11.114Z,250.07
2022-10-20T03:54:42.480Z,257.63
2022-10-20T03:57:13.461Z,257.03
2022-10-20T03:59:44.231Z,255.93
2022-10-20T04:02:34.788Z,252.60
2022-10-20T04:05:06.911Z,249.50
2022-10-20T04:07:38.578Z,254.80
2022-10-20T04:10:11.245Z,253.40
2022-10-20T04:12:42.444Z,249.53
2022-10-20T04:15:14.161Z,252.30
2022-10-20T04:17:47.178Z,255.67
2022-10-20T04:20:18.635Z,247.50
2022-10-20T04:22:49.823Z,252.67
2022-10-20T04:25:21.082Z,259.60
2022-10-20T04:27:52.680Z,258.07
2022-10-20T04:30:23.729Z,248.57
2022-10-20T04:32:56.914Z,253.20
2022-10-20T04:35:27.969Z,252.87
2022-10-20T04:37:59.981Z,253.47
2022-10-20T04:40:31.451Z,253.00
2022-10-20T04:43:03.645Z,248.90
2022-10-20T04:45:42.062Z,247.20
2022-10-20T04:48:15.300Z,245.87
2022-10-20T04:50:47.587Z,247.43
2022-10-20T04:53:18.895Z,247.43
2022-10-20T04:55:58.369Z,250.83
2022-10-20T04:58:29.833Z,249.87
2022-10-20T05:01:04.957Z,248.33
2022-10-20T05:03:40.780Z,247.63
2022-10-20T05:06:14.605Z,248.83
2022-10-20T05:08:47.436Z,248.57
2022-10-20T05:11:19.223Z,251.27
2022-10-20T05:13:50.753Z,247.97
2022-10-20T05:16:22.087Z,250.23
2022-10-20T05:18:55.078Z,246.53
2022-10-20T05:21:28.174Z,245.37
2022-10-20T05:24:01.038Z,243.00
2022-10-20T05:26:35.732Z,247.10
2022-10-20T05:29:08.436Z,242.13
2022-10-20T05:31:41.612Z,239.23
2022-10-20T05:34:15.429Z,245.90
2022-10-20T05:36:47.825Z,246.90
2022-10-20T05:39:19.431Z,244.00
2022-10-20T05:41:50.611Z,240.03
2022-10-20T05:44:21.646Z,242.30
2022-10-20T05:46:52.717Z,241.70
2022-10-20T05:49:26.290Z,240.90
2022-10-20T05:51:57.278Z,240.63
2022-10-20T05:54:28.457Z,240.73
2022-10-20T05:56:59.616Z,237.37
2022-10-20T05:59:30.721Z,241.37
2022-10-20T06:02:02.066Z,237.80
2022-10-20T06:04:35.765Z,232.40
2022-10-20T06:07:10.856Z,237.47
2022-10-20T06:09:42.676Z,234.80
2022-10-20T06:12:13.706Z,234.13
2022-10-20T06:14:44.657Z,229.97
2022-10-20T06:17:16.557Z,234.10
2022-10-20T06:19:49.945Z,233.73
2022-10-20T06:22:20.956Z,230.00
2022-10-20T06:24:51.950Z,229.43
2022-10-20T06:27:23.284Z,228.50
2022-10-20T06:29:55.867Z,229.27
2022-10-20T06:32:27.251Z,230.60
2022-10-20T06:35:01.676Z,229.40
2022-10-20T06:37:32.776Z,230.27
2022-10-20T06:40:03.875Z,227.00
2022-10-20T06:42:35.566Z,227.33
2022-10-20T06:45:07.377Z,226.70
2022-10-20T06:47:38.993Z,224.93
2022-10-20T06:50:13.659Z,230.20
2022-10-20T06:52:44.730Z,229.03
2022-10-20T06:55:15.712Z,231.77
2022-10-20T06:57:46.835Z,228.13
2022-10-20T07:00:19.210Z,232.70
2022-10-20T07:02:50.252Z,235.53
2022-10-20T07:05:23.265Z,234.83
2022-10-20T07:07:57.205Z,242.47
2022-10-20T07:10:29.090Z,242.13
2022-10-20T07:13:00.632Z,246.43
2022-10-20T07:15:33.803Z,241.03
2022-10-20T07:18:05.785Z,243.80
2022-10-20T07:20:38.957Z,250.33
2022-10-20T07:23:11.976Z,246.20
2022-10-20T07:25:43.001Z,244.07
2022-10-20T07:28:14.701Z,242.37
2022-10-20T07:30:47.465Z,246.80
2022-10-20T07:33:18.608Z,247.60
2022-10-20T07:35:53.259Z,245.67
2022-10-20T07:38:24.370Z,240.87
2022-10-20T07:41:00.648Z,242.17
2022-10-20T07:43:33.391Z,239.60
2022-10-20T07:46:05.241Z,245.00
2022-10-20T07:48:36.573Z,239.23
2022-10-20T07:51:33.913Z,242.40
2022-10-20T07:54:06.658Z,239.10
2022-10-20T07:56:40.280Z,238.93
2022-10-20T07:59:12.703Z,238.53
2022-10-20T08:01:44.476Z,240.53
2022-10-20T08:04:15.986Z,244.10
2022-10-20T08:06:49.329Z,244.43
2022-10-20T08:09:20.503Z,239.77
2022-10-20T08:11:52.929Z,241.87
2022-10-20T08:14:28.263Z,239.17
2022-10-20T08:16:59.417Z,238.87
2022-10-20T08:19:36.717Z,234.60
2022-10-20T08:22:09.702Z,239.97
2022-10-20T08:24:40.927Z,237.60
2022-10-20T08:27:11.934Z,237.93
2022-10-20T08:29:50.700Z,242.37
2022-10-20T08:32:31.257Z,236.23
2022-10-20T08:35:02.640Z,241.63
2022-10-20T08:37:37.630Z,237.63
2022-10-20T08:40:10.021Z,241.23
2022-10-20T08:42:46.016Z,238.43
2022-10-20T08:45:21.060Z,236.07
2022-10-20T08:47:54.973Z,244.73
2022-10-20T08:50:28.680Z,237.07
2022-10-20T08:53:03.206Z,240.23
2022-10-20T08:55:36.602Z,241.30
2022-10-20T08:58:10.319Z,245.67
2022-10-20T09:00:42.570Z,244.00
2022-10-20T09:03:22.598Z,242.43
2022-10-20T09:05:57.698Z,243.90
2022-10-20T09:08:34.295Z,246.10
2022-10-20T09:11:06.480Z,240.77
2022-10-20T09:13:39.680Z,243.90
2022-10-20T09:16:27.200Z,250.87
2022-10-20T09:19:08.932Z,243.30
2022-10-20T09:21:41.323Z,247.80
2022-10-20T09:24:14.664Z,245.40
2022-10-20T09:27:03.714Z,255.77
2022-10-20T09:29:43.612Z,243.73
2022-10-20T09:35:27.186Z,248.63
2022-10-20T09:38:03.276Z,247.00
2022-10-20T09:40:36.479Z,244.40
2022-10-20T09:43:16.117Z,249.23
2022-10-20T09:45:55.875Z,243.20
2022-10-20T09:48:30.427Z,245.87
2022-10-20T09:51:02.712Z,249.63
2022-10-20T09:53:37.340Z,249.27
2022-10-20T09:56:11.029Z,247.43
2022-10-20T09:58:44.679Z,253.30
2022-10-20T10:01:19.849Z,248.17
2022-10-20T10:03:52.572Z,254.07
2022-10-20T10:06:31.345Z,246.67
2022-10-20T10:09:05.126Z,247.63
2022-10-20T10:11:39.929Z,255.20
2022-10-20T10:14:24.473Z,252.03
2022-10-20T10:16:56.096Z,249.83
2022-10-20T10:19:31.611Z,252.73
2022-10-20T10:22:03.822Z,248.73
2022-10-20T10:24:46.982Z,252.10
2022-10-20T10:27:28.385Z,249.33
2022-10-20T10:30:20.299Z,246.83
2022-10-20T10:32:52.400Z,246.07
2022-10-20T10:35:31.067Z,249.97
2022-10-20T10:38:03.540Z,245.97
2022-10-20T10:40:39.227Z,248.50
2022-10-20T10:43:31.103Z,250.10
2022-10-20T10:46:06.568Z,240.67
2022-10-20T10:49:01.276Z,241.50
2022-10-20T10:51:45.957Z,249.63
2022-10-20T10:54:28.528Z,248.47
2022-10-20T10:57:06.921Z,240.00
2022-10-20T10:59:45.783Z,243.87
2022-10-20T11:02:40.746Z,246.97
2022-10-20T11:05:59.679Z,247.87
2022-10-20T11:08:46.311Z,244.13
2022-10-20T11:11:27.646Z,243.73
2022-10-20T11:14:10.048Z,245.33
2022-10-20T11:16:51.113Z,243.20
2022-10-20T11:20:02.789Z,239.80
2022-10-20T11:22:42.519Z,244.60
2022-10-20T11:25:25.401Z,246.03
2022-10-20T11:27:59.528Z,248.17
2022-10-20T11:30:32.089Z,249.37
2022-10-20T11:33:14.010Z,248.43
2022-10-20T11:35:50.309Z,246.80
2022-10-20T11:38:25.992Z,248.53
2022-10-20T11:41:04.539Z,246.53
2022-10-20T11:43:41.039Z,244.87
2022-10-20T11:46:16.192Z,243.07
2022-10-20T11:48:53.842Z,243.23
2022-10-20T11:52:01.351Z,248.00
2022-10-20T11:55:00.264Z,244.50
2022-10-20T11:57:50.062Z,236.57
2022-10-20T12:00:48.446Z,240.23
2022-10-20T12:03:47.669Z,236.73
2022-10-20T12:06:49.787Z,243.77
2022-10-20T12:09:34.500Z,241.70
2022-10-20T12:12:09.016Z,248.60
2022-10-20T12:14:44.280Z,244.63
2022-10-20T12:17:31.043Z,244.13
2022-10-20T12:20:43.965Z,248.33
2022-10-20T12:24:03.395Z,245.63
2022-10-20T12:27:07.328Z,243.90
2022-10-20T12:30:01.706Z,243.37
2022-10-20T12:33:12.619Z,246.20
2022-10-20T12:36:02.046Z,243.53
2022-10-20T12:38:36.248Z,244.67
2022-10-20T12:41:08.794Z,249.87
2022-10-20T12:43:53.809Z,251.90
2022-10-20T12:46:29.602Z,245.23
2022-10-20T12:49:08.072Z,243.93
2022-10-20T12:51:54.297Z,248.13
2022-10-20T12:54:32.212Z,243.13
2022-10-20T12:57:07.421Z,250.53
2022-10-20T12:59:43.752Z,242.27
2022-10-20T13:02:47.784Z,243.27
2022-10-20T13:05:48.617Z,245.27
2022-10-20T13:08:36.676Z,243.30
2022-10-20T13:11:43.865Z,246.77
2022-10-20T13:14:44.999Z,244.63
2022-10-20T13:17:39.039Z,247.47
2022-10-20T13:20:34.089Z,244.00
2022-10-20T13:23:05.546Z,238.60
2022-10-20T13:25:43.291Z,243.43
2022-10-20T13:28:22.311Z,240.10
2022-10-20T13:31:29.322Z,247.70
2022-10-20T13:34:06.887Z,241.03
2022-10-20T13:37:04.545Z,240.47
2022-10-20T13:39:45.210Z,240.63
2022-10-20T13:42:33.858Z,236.17
2022-10-20T13:45:15.629Z,234.80
2022-10-20T13:48:00.420Z,238.90
2022-10-20T13:50:35.150Z,241.87
2022-10-20T13:53:16.308Z,240.70
2022-10-20T13:56:05.222Z,239.17
2022-10-20T13:58:36.811Z,236.63
2022-10-20T14:01:10.134Z,236.23
2022-10-20T14:03:48.500Z,240.93
2022-10-20T14:06:43.148Z,235.53
2022-10-20T14:09:18.643Z,234.77
2022-10-20T14:11:52.210Z,238.33
2022-10-20T14:14:27.452Z,237.23
2022-10-20T14:17:02.424Z,238.70
2022-10-20T14:19:42.323Z,235.90
2022-10-20T14:22:22.298Z,242.47
2022-10-20T14:24:56.041Z,237.63
2022-10-20T14:27:30.201Z,244.23
2022-10-20T14:30:02.146Z,240.00
2022-10-20T14:32:42.774Z,236.63
2022-10-20T14:35:28.788Z,242.30
2022-10-20T14:38:04.967Z,241.43
2022-10-20T14:40:37.849Z,240.80
2022-10-20T14:43:15.798Z,241.23
2022-10-20T14:45:56.258Z,243.37
2022-10-20T14:48:33.038Z,244.23
2022-10-20T14:51:06.609Z,244.50
2022-10-20T14:53:38.078Z,246.90
2022-10-20T14:56:27.438Z,248.70
2022-10-20T14:59:03.632Z,239.10
2022-10-20T15:01:34.867Z,249.63
2022-10-20T15:04:16.874Z,249.40
2022-10-20T15:06:50.818Z,247.77
2022-10-20T15:09:32.531Z,246.40
2022-10-20T15:12:08.904Z,246.77
2022-10-20T15:14:48.179Z,242.63
2022-10-20T15:17:36.999Z,239.13
2022-10-20T15:20:38.820Z,247.73
2022-10-20T15:23:13.511Z,243.03
2022-10-20T15:25:50.073Z,245.77
2022-10-20T15:28:40.438Z,246.33
2022-10-20T15:31:20.075Z,248.40
2022-10-20T15:33:51.552Z,247.50
2022-10-20T15:36:30.911Z,250.07
2022-10-20T15:39:05.343Z,246.23
2022-10-20T15:41:38.119Z,244.97
2022-10-20T15:44:18.511Z,246.27
2022-10-20T15:46:49.666Z,247.10
2022-10-20T15:49:20.927Z,246.27
2022-10-20T15:51:53.825Z,248.00
2022-10-20T15:54:27.560Z,252.10
2022-10-20T15:56:59.315Z,249.53
2022-10-20T15:59:30.196Z,246.90
2022-10-20T16:02:01.369Z,251.37
2022-10-20T16:04:33.365Z,254.33
2022-10-20T16:07:04.489Z,255.07
2022-10-20T16:09:37.551Z,252.03
2022-10-20T16:12:09.107Z,246.60
2022-10-20T16:14:41.926Z,244.77
2022-10-20T16:17:13.280Z,248.73
2022-10-20T16:19:44.183Z,247.30
2022-10-20T16:22:15.451Z,246.30
2022-10-20T16:24:49.484Z,246.53
2022-10-20T16:27:21.436Z,250.53
2022-10-20T16:29:53.866Z,250.23
2022-10-20T16:32:25.843Z,251.00
2022-10-20T16:34:56.936Z,246.90
2022-10-20T16:37:28.062Z,246.87
2022-10-20T16:40:01.316Z,246.13
2022-10-20T16:42:33.901Z,250.97
2022-10-20T16:45:06.597Z,248.00
2022-10-20T16:47:39.075Z,245.00
2022-10-20T16:50:11.638Z,243.53
2022-10-20T16:52:42.693Z,234.17
2022-10-20T16:55:16.545Z,238.97
2022-10-20T16:57:47.437Z,241.90
2022-10-20T17:00:19.179Z,240.73
2022-10-20T17:02:50.529Z,240.77
2022-10-20T17:05:26.412Z,244.27
2022-10-20T17:07:57.998Z,239.33
2022-10-20T17:10:31.732Z,243.83
2022-10-20T17:13:02.777Z,241.40
2022-10-20T17:15:34.211Z,237.50
2022-10-20T17:18:05.176Z,232.40
2022-10-20T17:20:41.031Z,227.40
2022-10-20T17:23:12.194Z,219.27
2022-10-20T17:25:45.185Z,219.87
2022-10-20T17:28:16.274Z,224.10
2022-10-20T17:30:48.581Z,225.07
2022-10-20T17:33:20.088Z,213.27
2022-10-20T17:35:52.297Z,221.00
2022-10-20T17:38:23.759Z,220.97
2022-10-20T17:40:57.220Z,217.93
2022-10-20T17:43:28.249Z,223.10
2022-10-20T17:46:00.109Z,220.67
2022-10-20T17:48:31.646Z,219.23
2022-10-20T17:51:04.825Z,219.20
2022-10-20T17:53:36.826Z,214.53
2022-10-20T17:56:13.673Z,216.87
2022-10-20T17:58:46.401Z,220.97
2022-10-20T18:01:20.214Z,218.03
2022-10-20T18:03:56.013Z,222.77
2022-10-20T18:06:34.125Z,221.73
2022-10-20T18:09:07.669Z,232.50
2022-10-20T18:11:42.215Z,243.90
2022-10-20T18:14:14.015Z,239.73
2022-10-20T18:16:46.086Z,237.90
2022-10-20T18:19:18.887Z,237.67
2022-10-20T18:21:50.575Z,237.23
2022-10-20T18:24:22.297Z,242.73
2022-10-20T18:26:55.548Z,240.30
2022-10-20T18:29:26.693Z,237.83
2022-10-20T18:31:58.085Z,237.87
2022-10-20T18:34:29.105Z,235.53
2022-10-20T18:37:00.156Z,233.97
2022-10-20T18:39:32.625Z,238.97
2022-10-20T18:42:06.353Z,226.73
2022-10-20T18:44:37.778Z,228.17
2022-10-20T18:47:08.976Z,235.27
2022-10-20T18:49:40.136Z,241.00
2022-10-20T18:52:11.132Z,237.40
2022-10-20T18:54:42.727Z,234.87
2022-10-20T18:57:15.768Z,236.97
2022-10-20T18:59:47.215Z,236.03
2022-10-20T19:02:18.342Z,238.43
2022-10-20T19:04:50.069Z,233.13
2022-10-20T19:07:21.100Z,238.43
2022-10-20T19:09:55.495Z,238.93
2022-10-20T19:12:28.548Z,241.90
2022-10-20T19:14:59.582Z,245.67
2022-10-20T19:17:30.657Z,238.60
2022-10-20T19:20:01.717Z,244.30
2022-10-20T19:22:32.876Z,242.50
2022-10-20T19:25:03.887Z,243.50
2022-10-20T19:27:38.041Z,244.03
2022-10-20T19:30:10.233Z,244.07
2022-10-20T19:32:41.722Z,240.27
2022-10-20T19:35:14.802Z,244.43
2022-10-20T19:37:46.331Z,244.87
2022-10-20T19:40:17.760Z,244.17
2022-10-20T19:42:53.819Z,240.67
2022-10-20T19:45:24.825Z,241.90
2022-10-20T19:47:56.251Z,241.87
2022-10-20T19:50:27.757Z,239.10
2022-10-20T19:52:59.251Z,237.87
2022-10-20T19:55:30.844Z,235.67
2022-10-20T19:58:04.248Z,230.53
2022-10-20T20:00:35.460Z,230.13
2022-10-20T20:03:06.890Z,232.23
2022-10-20T20:05:38.009Z,235.67
2022-10-20T20:08:09.750Z,238.17
2022-10-20T20:10:41.555Z,236.43
2022-10-20T20:13:14.154Z,235.53
2022-10-20T20:15:46.552Z,235.13
2022-10-20T20:18:19.185Z,236.93
2022-10-20T20:20:52.010Z,234.43
2022-10-20T20:23:34.750Z,228.50
2022-10-20T20:26:16.029Z,221.53
2022-10-20T20:28:49.421Z,227.07
2022-10-20T20:31:20.896Z,218.20
2022-10-20T20:33:52.270Z,220.73
2022-10-20T20:36:24.367Z,219.37
2022-10-20T20:38:57.508Z,220.83
2022-10-20T20:41:31.239Z,223.33
2022-10-20T20:44:08.267Z,221.87
2022-10-20T20:46:40.005Z,214.53
2022-10-20T20:49:11.041Z,209.27
2022-10-20T20:51:41.882Z,205.20
2022-10-20T20:54:13.753Z,192.60
2022-10-20T20:56:45.564Z,210.30
2022-10-20T20:59:19.204Z,207.57
2022-10-20T21:01:51.215Z,203.93
2022-10-20T21:04:23.130Z,201.87
2022-10-20T21:07:02.104Z,200.30
2022-10-20T21:09:34.703Z,189.93
2022-10-20T21:12:06.894Z,188.73
2022-10-20T21:14:40.760Z,196.07
2022-10-20T21:17:11.811Z,201.20
2022-10-20T21:19:43.676Z,196.57
2022-10-20T21:22:15.109Z,199.70
2022-10-20T21:24:46.153Z,192.63
2022-10-20T21:27:17.160Z,188.80
2022-10-20T21:29:50.669Z,155.33
2022-10-20T21:32:22.622Z,130.60
2022-10-20T21:34:56.028Z,106.63
2022-10-20T21:37:27.137Z,93.43
2022-10-20T21:39:58.229Z,89.40
2022-10-20T21:42:29.282Z,102.37
2022-10-20T21:45:02.042Z,104.47
2022-10-20T21:47:33.079Z,95.60
2022-10-20T21:50:04.093Z,94.77
2022-10-20T21:52:36.217Z,98.07
2022-10-20T21:55:08.462Z,101.93
2022-10-20T21:57:40.362Z,107.33
2022-10-20T22:00:15.220Z,116.73
2022-10-20T22:02:46.701Z,127.77
2022-10-20T22:05:18.462Z,123.73
2022-10-20T22:07:49.937Z,116.73
2022-10-20T22:10:20.890Z,126.03
2022-10-20T22:12:52.240Z,120.97
2022-10-20T22:15:25.137Z,120.40
2022-10-20T22:17:56.853Z,121.10
2022-10-20T22:20:28.340Z,125.80
2022-10-20T22:23:02.638Z,122.13
2022-10-20T22:25:34.478Z,122.87
2022-10-20T22:28:06.300Z,124.43
2022-10-20T22:30:39.345Z,125.40
2022-10-20T22:33:10.288Z,118.13
2022-10-20T22:35:41.323Z,117.63
2022-10-20T22:38:12.414Z,115.03
2022-10-20T22:40:43.727Z,114.63
2022-10-20T22:43:15.085Z,110.47
2022-10-20T22:45:47.737Z,130.60
2022-10-20T22:48:18.716Z,130.27
2022-10-20T22:50:49.697Z,119.23
2022-10-20T22:53:20.964Z,118.73
2022-10-20T22:55:54.193Z,122.30
2022-10-20T22:58:25.643Z,117.77
2022-10-20T23:00:58.888Z,116.73
2022-10-20T23:03:29.938Z,113.57
2022-10-20T23:06:01.367Z,113.60
2022-10-20T23:08:32.770Z,113.57
2022-10-20T23:11:03.821Z,112.93
2022-10-20T23:13:37.492Z,112.50
2022-10-20T23:16:11.684Z,111.87
2022-10-20T23:18:43.030Z,112.30
2022-10-20T23:21:15.132Z,111.53
2022-10-20T23:23:47.587Z,112.70
2022-10-20T23:26:18.916Z,116.17
2022-10-20T23:28:50.516Z,116.43
2022-10-20T23:31:24.875Z,112.87
2022-10-20T23:33:59.131Z,113.00
2022-10-20T23:36:30.659Z,111.77
2022-10-20T23:39:03.865Z,111.97
2022-10-20T23:41:34.804Z,113.70
2022-10-20T23:44:06.104Z,110.43
2022-10-20T23:46:40.090Z,104.07
2022-10-20T23:49:11.741Z,100.17
2022-10-20T23:51:43.744Z,97.20
2022-10-20T23:54:15.229Z,86.07
2022-10-20T23:56:46.394Z,87.27
2022-10-20T23:59:17.536Z,86.57
